createdAt,value
2022-08-16T00:01:19.045Z,93584.28
2022-08-16T00:03:46.785Z,93589.75
2022-08-16T00:06:15.886Z,93584.28
2022-08-16T00:08:45.934Z,93597.09
2022-08-16T00:11:15.492Z,93600.66
2022-08-16T00:13:53.961Z,93591.66
2022-08-16T00:17:01.607Z,93600.16
2022-08-16T00:19:13.946Z,93591.44
2022-08-16T00:21:43.487Z,93598.53
2022-08-16T00:24:12.314Z,93596.91
2022-08-16T00:26:45.193Z,93598.03
2022-08-16T00:29:15.565Z,93605.09
2022-08-16T00:31:58.957Z,93604.59
2022-08-16T00:34:44.300Z,93610.88
2022-08-16T00:37:20.588Z,93610.03
2022-08-16T00:39:57.247Z,93615.50
2022-08-16T00:42:30.434Z,93611.16
2022-08-16T00:45:08.176Z,93608.94
2022-08-16T00:47:36.905Z,93608.13
2022-08-16T00:50:11.353Z,93602.97
2022-08-16T00:52:45.826Z,93596.41
2022-08-16T00:55:22.269Z,93597.53
2022-08-16T00:58:00.016Z,93590.44
2022-08-16T01:00:29.217Z,93595.91
2022-08-16T01:02:57.421Z,93599.75
2022-08-16T01:05:25.474Z,93600.56
2022-08-16T01:07:54.630Z,93595.13
2022-08-16T01:10:31.262Z,93596.22
2022-08-16T01:13:04.520Z,93596.22
2022-08-16T01:15:33.872Z,93594.59
2022-08-16T01:18:05.842Z,93596.53
2022-08-16T01:20:33.990Z,93597.94
2022-08-16T01:23:08.480Z,93597.13
2022-08-16T01:25:39.809Z,93595.19
2022-08-16T01:28:11.378Z,93599.88
2022-08-16T01:30:50.547Z,93601.78
2022-08-16T01:33:19.345Z,93592.81
2022-08-16T01:35:52.510Z,93587.34
2022-08-16T01:38:25.798Z,93586.53
2022-08-16T01:41:01.953Z,93594.22
2022-08-16T01:43:31.282Z,93592.28
2022-08-16T01:46:30.193Z,93585.19
2022-08-16T01:48:48.816Z,93583.31
2022-08-16T01:51:19.491Z,93579.75
2022-08-16T01:53:55.361Z,93583.31
2022-08-16T01:56:25.811Z,93586.03
2022-08-16T01:58:54.796Z,93580.88
2022-08-16T02:01:22.770Z,93576.53
2022-08-16T02:03:51.896Z,93582.81
2022-08-16T02:06:34.520Z,93582.81
2022-08-16T02:09:06.190Z,93583.09
2022-08-16T02:11:47.847Z,93580.38
2022-08-16T02:14:21.627Z,93583.09
2022-08-16T02:16:49.642Z,93574.41
2022-08-16T02:19:18.394Z,93575.25
2022-08-16T02:22:07.912Z,93568.97
2022-08-16T02:24:42.129Z,93575.53
2022-08-16T02:27:11.762Z,93573.91
2022-08-16T02:29:41.364Z,93579.38
2022-08-16T02:32:49.309Z,93579.38
2022-08-16T02:34:57.746Z,93578.53
2022-08-16T02:37:51.198Z,93580.97
2022-08-16T02:40:16.388Z,93587.53
2022-08-16T02:42:45.528Z,93582.38
2022-08-16T02:45:15.853Z,93578.03
2022-08-16T02:48:00.165Z,93575.66
2022-08-16T02:50:53.831Z,93568.56
2022-08-16T02:53:18.039Z,93579.44
2022-08-16T02:55:46.194Z,93574.00
2022-08-16T02:58:19.901Z,93571.28
2022-08-16T03:00:53.088Z,93569.66
2022-08-16T03:03:24.820Z,93566.94
2022-08-16T03:05:53.160Z,93575.13
2022-08-16T03:08:51.971Z,93559.09
2022-08-16T03:11:16.849Z,93566.44
2022-08-16T03:13:47.754Z,93571.88
2022-08-16T03:16:32.849Z,93571.88
2022-08-16T03:19:06.406Z,93575.72
2022-08-16T03:21:37.772Z,93571.09
2022-08-16T03:24:27.611Z,93565.94
2022-08-16T03:26:54.197Z,93569.78
2022-08-16T03:29:30.067Z,93570.59
2022-08-16T03:31:58.985Z,93564.63
2022-08-16T03:34:27.354Z,93568.16
2022-08-16T03:36:55.719Z,93564.63
2022-08-16T03:39:23.653Z,93568.47
2022-08-16T03:41:59.963Z,93566.56
2022-08-16T03:44:43.527Z,93566.84
2022-08-16T03:47:12.537Z,93563.31
2022-08-16T03:49:40.924Z,93559.78
2022-08-16T03:52:09.979Z,93559.00
2022-08-16T03:54:37.726Z,93558.16
2022-08-16T03:57:05.942Z,93570.19
2022-08-16T03:59:43.533Z,93572.09
2022-08-16T04:02:22.818Z,93566.97
2022-08-16T04:04:59.496Z,93566.97
2022-08-16T04:07:27.146Z,93562.31
2022-08-16T04:10:33.919Z,93565.03
2022-08-16T04:12:53.962Z,93560.41
2022-08-16T04:15:26.295Z,93555.22
2022-08-16T04:17:54.880Z,93557.66
2022-08-16T04:20:29.573Z,93550.28
2022-08-16T04:23:01.993Z,93554.72
2022-08-16T04:25:30.166Z,93547.47
2022-08-16T04:28:52.309Z,93557.06
2022-08-16T04:30:48.287Z,93555.53
2022-08-16T04:33:18.232Z,93547.38
2022-08-16T04:35:55.357Z,93563.72
2022-08-16T04:38:24.567Z,93563.19
2022-08-16T04:40:52.261Z,93566.19
2022-08-16T04:43:22.073Z,93565.69
2022-08-16T04:46:00.007Z,93565.19
2022-08-16T04:48:32.739Z,93570.63
2022-08-16T04:51:01.913Z,93567.41
2022-08-16T04:53:41.369Z,93579.72
2022-08-16T04:56:11.527Z,93576.78
2022-08-16T04:58:46.039Z,93578.41
2022-08-16T05:01:17.654Z,93582.22
2022-08-16T05:03:59.792Z,93578.72
2022-08-16T05:06:42.224Z,93582.53
2022-08-16T05:09:13.448Z,93586.38
2022-08-16T05:11:41.193Z,93579.81
2022-08-16T05:14:09.101Z,93584.94
2022-08-16T05:16:38.125Z,93581.72
2022-08-16T05:19:11.745Z,93585.56
2022-08-16T05:21:44.101Z,93585.56
2022-08-16T05:24:14.109Z,93585.88
2022-08-16T05:26:51.574Z,93589.38
2022-08-16T05:29:20.579Z,93591.81
2022-08-16T05:31:53.220Z,93593.72
2022-08-16T05:34:22.402Z,93592.63
2022-08-16T05:36:51.307Z,93600.00
2022-08-16T05:39:20.678Z,93600.78
2022-08-16T05:41:51.860Z,93602.41
2022-08-16T05:44:23.732Z,93601.91
2022-08-16T05:46:54.653Z,93605.94
2022-08-16T05:49:23.257Z,93602.63
2022-08-16T05:51:51.172Z,93598.28
2022-08-16T05:54:25.265Z,93595.84
2022-08-16T05:56:53.586Z,93601.28
2022-08-16T05:59:22.075Z,93608.38
2022-08-16T06:01:50.591Z,93603.72
2022-08-16T06:04:34.787Z,93602.41
2022-08-16T06:07:07.487Z,93601.28
2022-08-16T06:09:37.137Z,93602.94
2022-08-16T06:12:12.061Z,93606.44
2022-08-16T06:14:40.021Z,93614.63
2022-08-16T06:17:07.934Z,93604.84
2022-08-16T06:19:38.155Z,93615.72
2022-08-16T06:22:09.257Z,93622.00
2022-08-16T06:24:54.572Z,93605.34
2022-08-16T06:27:23.427Z,93599.59
2022-08-16T06:29:51.571Z,93612.13
2022-08-16T06:32:27.893Z,93617.25
2022-08-16T06:35:02.053Z,93612.63
2022-08-16T06:37:37.472Z,93611.78
2022-08-16T06:40:13.038Z,93616.16
2022-08-16T06:42:47.857Z,93610.41
2022-08-16T06:45:16.055Z,93614.72
2022-08-16T06:47:53.544Z,93615.56
2022-08-16T06:50:29.305Z,93617.16
2022-08-16T06:53:01.157Z,93620.69
2022-08-16T06:55:38.357Z,93623.94
2022-08-16T06:58:08.507Z,93617.09
2022-08-16T07:00:50.409Z,93619.03
2022-08-16T07:03:28.136Z,93620.31
2022-08-16T07:05:57.959Z,93614.88
2022-08-16T07:08:27.440Z,93609.13
2022-08-16T07:10:55.386Z,93614.59
2022-08-16T07:13:58.452Z,93613.47
2022-08-16T07:16:14.490Z,93625.19
2022-08-16T07:18:59.177Z,93625.97
2022-08-16T07:21:45.847Z,93621.34
2022-08-16T07:24:29.707Z,93610.47
2022-08-16T07:26:58.377Z,93620.75
2022-08-16T07:29:26.073Z,93618.81
2022-08-16T07:31:53.735Z,93619.63
2022-08-16T07:34:35.269Z,93619.13
2022-08-16T07:37:08.351Z,93625.09
2022-08-16T07:39:42.904Z,93618.53
2022-08-16T07:42:10.824Z,93623.97
2022-08-16T07:44:53.655Z,93629.44
2022-08-16T07:47:24.528Z,93627.53
2022-08-16T07:49:57.765Z,93619.34
2022-08-16T07:52:30.014Z,93628.81
2022-08-16T07:54:57.954Z,93628.81
2022-08-16T07:57:26.329Z,93631.53
2022-08-16T07:59:57.072Z,93637.00
2022-08-16T08:02:27.333Z,93633.16
2022-08-16T08:04:55.365Z,93633.97
2022-08-16T08:07:23.056Z,93637.50
2022-08-16T08:09:57.541Z,93631.25
2022-08-16T08:12:31.336Z,93639.13
2022-08-16T08:15:00.611Z,93643.78
2022-08-16T08:17:43.182Z,93640.75
2022-08-16T08:20:13.290Z,93642.38
2022-08-16T08:22:52.338Z,93650.53
2022-08-16T08:25:55.324Z,93645.09
2022-08-16T08:28:17.090Z,93643.97
2022-08-16T08:30:51.760Z,93649.44
2022-08-16T08:33:29.355Z,93651.03
2022-08-16T08:35:57.325Z,93645.59
2022-08-16T08:38:45.902Z,93651.03
2022-08-16T08:41:18.347Z,93643.66
2022-08-16T08:43:46.796Z,93644.47
2022-08-16T08:46:21.369Z,93647.22
2022-08-16T08:48:59.686Z,93652.38
2022-08-16T08:51:35.631Z,93646.09
2022-08-16T08:54:06.764Z,93648.81
2022-08-16T08:56:37.311Z,93641.47
2022-08-16T08:59:13.476Z,93644.19
2022-08-16T09:01:56.464Z,93643.88
2022-08-16T09:04:26.697Z,93648.22
2022-08-16T09:06:54.606Z,93641.16
2022-08-16T09:09:22.294Z,93645.50
2022-08-16T09:12:00.253Z,93646.31
2022-08-16T09:14:34.344Z,93638.13
2022-08-16T09:17:12.001Z,93643.59
2022-08-16T09:19:53.778Z,93645.19
2022-08-16T09:22:24.593Z,93646.00
2022-08-16T09:24:58.131Z,93645.19
2022-08-16T09:27:57.369Z,93643.25
2022-08-16T09:30:33.444Z,93647.59
2022-08-16T09:33:04.176Z,93650.31
2022-08-16T09:35:34.549Z,93639.41
2022-08-16T09:38:05.166Z,93635.63
2022-08-16T09:40:43.748Z,93636.69
2022-08-16T09:43:44.815Z,93639.13
2022-08-16T09:46:02.703Z,93633.69
2022-08-16T09:48:44.434Z,93626.31
2022-08-16T09:51:18.520Z,93634.50
2022-08-16T09:53:53.828Z,93625.22
2022-08-16T09:56:26.594Z,93628.72
2022-08-16T09:59:05.415Z,93632.28
2022-08-16T10:01:36.216Z,93631.16
2022-08-16T10:04:08.164Z,93627.31
2022-08-16T10:06:52.729Z,93631.66
2022-08-16T10:09:21.330Z,93642.56
2022-08-16T10:12:11.449Z,93632.50
2022-08-16T10:14:48.160Z,93636.00
2022-08-16T10:17:16.633Z,93632.16
2022-08-16T10:19:47.022Z,93628.31
2022-08-16T10:22:18.204Z,93625.59
2022-08-16T10:24:55.704Z,93636.50
2022-08-16T10:27:29.758Z,93625.59
2022-08-16T10:30:24.948Z,93629.16
2022-08-16T10:32:53.973Z,93621.75
2022-08-16T10:35:21.586Z,93626.44
2022-08-16T10:37:52.462Z,93627.22
2022-08-16T10:40:29.246Z,93626.44
2022-08-16T10:42:59.888Z,93631.88
2022-08-16T10:45:29.080Z,93634.28
2022-08-16T10:48:06.307Z,93634.28
2022-08-16T10:50:56.011Z,93630.75
2022-08-16T10:53:26.446Z,93634.28
2022-08-16T10:56:01.419Z,93632.38
2022-08-16T10:58:34.473Z,93637.84
2022-08-16T11:03:54.389Z,93629.66
2022-08-16T11:06:28.045Z,93631.25
2022-08-16T11:14:33.653Z,93626.63
2022-08-16T11:17:10.896Z,93637.53
2022-08-16T11:20:36.691Z,93630.16
2022-08-16T11:22:48.556Z,93637.53
2022-08-16T11:26:07.428Z,93632.88
2022-08-16T11:28:05.626Z,93634.50
2022-08-16T11:30:38.574Z,93625.53
2022-08-16T11:33:08.885Z,93628.25
2022-08-16T11:36:22.516Z,93634.19
2022-08-16T11:38:51.974Z,93625.19
2022-08-16T11:41:14.022Z,93624.41
2022-08-16T11:43:41.824Z,93620.06
2022-08-16T11:46:45.381Z,93614.63
2022-08-16T11:49:00.818Z,93617.34
2022-08-16T11:51:28.452Z,93625.19
2022-08-16T11:53:56.055Z,93621.34
2022-08-16T11:56:39.700Z,93624.91
2022-08-16T11:59:12.786Z,93617.00
2022-08-16T12:01:44.480Z,93612.38
2022-08-16T12:04:28.230Z,93620.56
2022-08-16T12:06:55.946Z,93619.44
2022-08-16T12:09:24.056Z,93618.34
2022-08-16T12:11:53.340Z,93619.94
2022-08-16T12:14:22.799Z,93613.69
2022-08-16T12:16:55.777Z,93615.63
2022-08-16T12:19:33.688Z,93618.34
2022-08-16T12:22:05.344Z,93608.22
2022-08-16T12:24:51.118Z,93608.22
2022-08-16T12:27:40.980Z,93610.94
2022-08-16T12:30:21.391Z,93615.63
2022-08-16T12:32:54.810Z,93609.03
2022-08-16T12:35:25.556Z,93610.94
2022-08-16T12:37:56.555Z,93608.22
2022-08-16T12:40:29.147Z,93609.03
2022-08-16T12:42:58.841Z,93615.31
2022-08-16T12:45:28.617Z,93605.19
2022-08-16T12:48:33.549Z,93610.66
2022-08-16T12:51:02.905Z,93605.19
2022-08-16T12:53:34.310Z,93612.59
2022-08-16T12:56:07.834Z,93610.66
2022-08-16T12:58:48.330Z,93605.19
2022-08-16T13:01:17.977Z,93602.47
2022-08-16T13:03:46.314Z,93600.56
2022-08-16T13:06:14.220Z,93597.03
2022-08-16T13:08:49.308Z,93600.56
2022-08-16T13:11:17.966Z,93595.41
2022-08-16T13:13:45.613Z,93598.13
2022-08-16T13:16:20.077Z,93594.28
2022-08-16T13:18:55.038Z,93600.56
2022-08-16T13:21:23.761Z,93595.91
2022-08-16T13:23:55.481Z,93595.91
2022-08-16T13:26:24.014Z,93599.75
2022-08-16T13:28:51.694Z,93591.28
2022-08-16T13:31:19.316Z,93583.09
2022-08-16T13:33:46.993Z,93592.06
2022-08-16T13:36:32.183Z,93579.53
2022-08-16T13:39:04.079Z,93580.38
2022-08-16T13:41:32.121Z,93583.09
2022-08-16T13:44:00.440Z,93574.91
2022-08-16T13:46:28.778Z,93574.91
2022-08-16T13:48:57.788Z,93575.72
2022-08-16T13:51:29.397Z,93569.47
2022-08-16T13:54:03.881Z,93581.16
2022-08-16T13:56:38.841Z,93578.44
2022-08-16T13:59:19.396Z,93574.59
2022-08-16T14:01:55.405Z,93574.59
2022-08-16T14:04:26.389Z,93571.06
2022-08-16T14:06:55.006Z,93562.56
2022-08-16T14:09:24.147Z,93567.44
2022-08-16T14:11:53.354Z,93568.22
2022-08-16T14:14:28.367Z,93572.06
2022-08-16T14:16:56.609Z,93565.00
2022-08-16T14:19:24.340Z,93573.19
2022-08-16T14:22:13.618Z,93570.47
2022-08-16T14:24:45.282Z,93565.28
2022-08-16T14:27:17.056Z,93568.84
2022-08-16T14:29:44.927Z,93560.38
2022-08-16T14:32:21.898Z,93558.72
2022-08-16T14:35:00.870Z,93555.69
2022-08-16T14:37:28.496Z,93559.25
2022-08-16T14:39:58.803Z,93555.69
2022-08-16T14:42:28.908Z,93563.59
2022-08-16T14:44:57.092Z,93558.13
2022-08-16T14:47:25.135Z,93551.88
2022-08-16T14:50:01.651Z,93559.25
2022-08-16T14:52:54.086Z,93554.59
2022-08-16T14:55:17.329Z,93554.91
2022-08-16T14:57:46.301Z,93560.38
2022-08-16T15:00:18.087Z,93555.69
2022-08-16T15:02:46.009Z,93559.25
2022-08-16T15:05:14.475Z,93557.63
2022-08-16T15:07:42.109Z,93558.44
2022-08-16T15:10:12.097Z,93554.09
2022-08-16T15:12:55.465Z,93563.09
2022-08-16T15:15:24.315Z,93557.63
2022-08-16T15:17:56.514Z,93554.09
2022-08-16T15:20:26.127Z,93557.63
2022-08-16T15:22:54.157Z,93553.28
2022-08-16T15:25:29.412Z,93554.09
2022-08-16T15:28:02.244Z,93568.56
2022-08-16T15:30:56.869Z,93564.72
2022-08-16T15:33:19.615Z,93565.50
2022-08-16T15:35:50.013Z,93559.53
2022-08-16T15:39:03.065Z,93568.56
2022-08-16T15:42:27.335Z,93554.38
2022-08-16T15:44:58.586Z,93556.00
2022-08-16T15:47:27.294Z,93566.91
2022-08-16T15:49:56.010Z,93554.38
2022-08-16T15:52:29.121Z,93558.22
2022-08-16T15:54:57.302Z,93562.56
2022-08-16T15:57:25.360Z,93562.56
2022-08-16T15:59:56.097Z,93559.06
2022-08-16T16:02:33.523Z,93559.06
2022-08-16T16:05:02.530Z,93556.31
2022-08-16T16:07:33.741Z,93556.31
2022-08-16T16:10:02.433Z,93550.53
2022-08-16T16:12:53.237Z,93547.31
2022-08-16T16:15:18.541Z,93552.78
2022-08-16T16:17:51.195Z,93553.59
2022-08-16T16:20:20.666Z,93554.72
2022-08-16T16:22:49.242Z,93556.31
2022-08-16T16:25:17.777Z,93554.38
2022-08-16T16:27:46.519Z,93557.13
2022-08-16T16:30:37.422Z,93546.19
2022-08-16T16:33:15.825Z,93549.75
2022-08-16T16:35:55.204Z,93550.53
2022-08-16T16:38:26.501Z,93549.47
2022-08-16T16:40:54.688Z,93545.91
2022-08-16T16:43:25.553Z,93554.59
2022-08-16T16:45:58.219Z,93559.25
2022-08-16T16:48:29.671Z,93548.03
2022-08-16T16:51:06.068Z,93546.41
2022-08-16T16:53:37.599Z,93548.03
2022-08-16T16:56:08.833Z,93548.03
2022-08-16T16:59:01.378Z,93554.28
2022-08-16T17:01:46.550Z,93549.63
2022-08-16T17:04:23.824Z,93551.56
2022-08-16T17:06:58.865Z,93553.47
2022-08-16T17:09:27.090Z,93555.09
2022-08-16T17:11:55.732Z,93546.13
2022-08-16T17:14:42.657Z,93550.44
2022-08-16T17:17:11.572Z,93548.50
2022-08-16T17:19:42.415Z,93557.53
2022-08-16T17:22:14.724Z,93559.13
2022-08-16T17:24:45.055Z,93561.84
2022-08-16T17:30:00.930Z,93559.13
2022-08-16T17:32:34.243Z,93559.13
2022-08-16T17:35:18.381Z,93559.63
2022-08-16T17:39:26.770Z,93564.59
2022-08-16T17:39:27.327Z,93558.00
2022-08-16T17:40:47.200Z,93561.44
2022-08-16T17:43:28.534Z,93559.41
2022-08-16T17:45:56.939Z,93567.19
2022-08-16T17:48:25.393Z,93558.59
2022-08-16T17:50:55.032Z,93560.56
2022-08-16T17:53:22.951Z,93567.25
2022-08-16T17:55:51.075Z,93556.97
2022-08-16T17:58:22.686Z,93557.66
2022-08-16T18:00:53.021Z,93564.63
2022-08-16T18:04:07.803Z,93562.59
2022-08-16T18:06:15.147Z,93565.19
2022-08-16T18:08:42.974Z,93569.44
2022-08-16T18:11:13.230Z,93568.47
2022-08-16T18:13:43.358Z,93565.94
2022-08-16T18:16:11.698Z,93571.56
2022-08-16T18:18:42.001Z,93574.00
2022-08-16T18:21:27.896Z,93566.78
2022-08-16T18:23:57.651Z,93573.28
2022-08-16T18:26:25.792Z,93572.97
2022-08-16T18:28:53.625Z,93568.00
2022-08-16T18:31:21.703Z,93579.09
2022-08-16T18:33:54.753Z,93581.69
2022-08-16T18:36:23.882Z,93579.78
2022-08-16T18:38:51.853Z,93584.44
2022-08-16T18:41:21.820Z,93581.22
2022-08-16T18:44:23.717Z,93589.53
2022-08-16T18:46:37.064Z,93591.75
2022-08-16T18:49:05.225Z,93590.47
2022-08-16T18:51:32.910Z,93590.56
2022-08-16T18:54:00.555Z,93599.09
2022-08-16T18:56:57.040Z,93595.66
2022-08-16T18:59:17.193Z,93604.78
2022-08-16T19:01:44.943Z,93603.81
2022-08-16T19:04:56.080Z,93600.06
2022-08-16T19:07:00.183Z,93601.00
2022-08-16T19:09:27.800Z,93601.59
2022-08-16T19:11:56.781Z,93606.91
2022-08-16T19:14:29.913Z,93611.84
2022-08-16T19:16:57.544Z,93610.56
2022-08-16T19:19:25.187Z,93618.25
2022-08-16T19:21:52.840Z,93616.13
2022-08-16T19:24:20.444Z,93612.09
2022-08-16T19:26:50.405Z,93616.25
2022-08-16T19:29:19.367Z,93619.25
2022-08-16T19:31:47.098Z,93613.31
2022-08-16T19:34:16.258Z,93619.09
2022-08-16T19:36:43.894Z,93610.38
2022-08-16T19:39:13.923Z,93616.16
2022-08-16T19:41:42.854Z,93620.00
2022-08-16T19:44:10.643Z,93617.88
2022-08-16T19:46:41.604Z,93619.81
2022-08-16T19:49:09.272Z,93624.44
2022-08-16T19:51:37.662Z,93616.59
2022-08-16T19:54:05.694Z,93619.31
2022-08-16T19:56:33.322Z,93621.56
2022-08-16T20:01:51.637Z,93622.66
2022-08-16T20:04:19.540Z,93619.13
2022-08-16T20:06:47.312Z,93622.97
2022-08-16T20:09:16.020Z,93617.81
2022-08-16T20:11:44.564Z,93625.19
2022-08-16T20:14:12.242Z,93625.50
2022-08-16T20:16:54.784Z,93624.69
2022-08-16T20:19:22.535Z,93622.25
2022-08-16T20:21:50.166Z,93625.00
2022-08-16T20:24:33.539Z,93625.00
2022-08-16T20:27:02.242Z,93633.19
2022-08-16T20:29:29.931Z,93637.03
2022-08-16T20:31:58.976Z,93637.31
2022-08-16T20:34:26.601Z,93643.59
2022-08-16T20:36:54.228Z,93641.16
2022-08-16T20:39:23.939Z,93642.28
2022-08-16T20:41:51.817Z,93640.38
2022-08-16T20:44:22.826Z,93640.38
2022-08-16T20:46:52.584Z,93643.34
2022-08-16T20:49:21.613Z,93642.56
2022-08-16T20:51:52.613Z,93641.75
2022-08-16T20:54:22.464Z,93641.75
2022-08-16T20:56:50.130Z,93640.91
2022-08-16T20:59:17.893Z,93640.13
2022-08-16T21:01:50.065Z,93642.84
2022-08-16T21:04:18.935Z,93643.97
2022-08-16T21:06:53.796Z,93643.97
2022-08-16T21:09:22.321Z,93647.50
2022-08-16T21:11:50.725Z,93639.63
2022-08-16T21:14:18.414Z,93649.72
2022-08-16T21:16:46.036Z,93652.78
2022-08-16T21:19:13.694Z,93648.09
2022-08-16T21:21:41.319Z,93646.50
2022-08-16T21:24:10.442Z,93651.16
2022-08-16T21:26:39.113Z,93655.50
2022-08-16T21:29:09.668Z,93651.16
2022-08-16T21:31:40.262Z,93662.06
2022-08-16T21:34:08.021Z,93655.78
2022-08-16T21:36:36.593Z,93654.97
2022-08-16T21:39:06.468Z,93656.63
2022-08-16T21:41:35.918Z,93656.91
2022-08-16T21:44:03.901Z,93663.97
2022-08-16T21:46:33.559Z,93649.03
2022-08-16T21:49:01.181Z,93649.84
2022-08-16T21:51:28.799Z,93649.03
2022-08-16T21:53:56.771Z,93651.75
2022-08-16T21:56:24.421Z,93654.47
2022-08-16T21:58:53.755Z,93647.13
2022-08-16T22:01:22.677Z,93642.28
2022-08-16T22:04:09.682Z,93647.41
2022-08-16T22:06:38.237Z,93639.53
2022-08-16T22:09:06.052Z,93645.00
2022-08-16T22:11:33.646Z,93644.19
2022-08-16T22:14:02.936Z,93638.72
2022-08-16T22:16:32.334Z,93636.28
2022-08-16T22:18:59.976Z,93637.09
2022-08-16T22:21:27.642Z,93643.69
2022-08-16T22:23:57.460Z,93649.94
2022-08-16T22:26:30.349Z,93649.94
2022-08-16T22:28:59.892Z,93650.25
2022-08-16T22:31:29.052Z,93651.03
2022-08-16T22:33:57.902Z,93651.03
2022-08-16T22:36:28.357Z,93650.25
2022-08-16T22:38:57.947Z,93649.44
2022-08-16T22:41:26.168Z,93652.47
2022-08-16T22:43:53.793Z,93653.59
2022-08-16T22:46:21.407Z,93649.75
2022-08-16T22:48:51.021Z,93648.94
2022-08-16T22:51:18.714Z,93654.69
2022-08-16T22:53:46.372Z,93654.69
2022-08-16T22:56:15.379Z,93654.69
2022-08-16T22:58:45.385Z,93651.16
2022-08-16T23:01:13.152Z,93647.63
2022-08-16T23:03:40.892Z,93646.81
2022-08-16T23:06:10.748Z,93650.38
2022-08-16T23:08:40.754Z,93646.00
2022-08-16T23:11:08.988Z,93636.72
2022-08-16T23:13:50.046Z,93631.56
2022-08-16T23:16:22.128Z,93626.91
2022-08-16T23:18:49.805Z,93629.63
2022-08-16T23:21:18.867Z,93617.09
2022-08-16T23:23:48.731Z,93628.00
2022-08-16T23:26:47.203Z,93626.09
2022-08-16T23:29:05.289Z,93618.22
2022-08-16T23:31:33.115Z,93620.16
2022-08-16T23:34:00.769Z,93621.78
2022-08-16T23:36:34.675Z,93615.50
2022-08-16T23:39:03.915Z,93614.69
2022-08-16T23:41:33.879Z,93615.50
2022-08-16T23:44:01.937Z,93613.88
2022-08-16T23:46:49.646Z,93609.25
2022-08-16T23:50:02.707Z,93601.06
2022-08-16T23:52:08.906Z,93600.56
2022-08-16T23:54:36.560Z,93598.63
2022-08-16T23:57:04.198Z,93602.47
2022-08-16T23:59:52.266Z,93602.47
